sensor_id;sensor_type;location;lat;lon;timestamp;P1;durP1;ratioP1;P2;durP2;ratioP2
48181;SDS011;33976;47.436;18.876;2022-12-24T00:01:32;13.35;;;7.85;;
48181;SDS011;33976;47.436;18.876;2022-12-24T00:04:00;2.33;;;2.17;;
48181;SDS011;33976;47.436;18.876;2022-12-24T00:06:28;4.50;;;4.12;;
48181;SDS011;33976;47.436;18.876;2022-12-24T00:08:56;4.07;;;2.65;;
48181;SDS011;33976;47.436;18.876;2022-12-24T00:11:25;2.50;;;2.40;;
48181;SDS011;33976;47.436;18.876;2022-12-24T00:13:53;2.33;;;2.12;;
48181;SDS011;33976;47.436;18.876;2022-12-24T00:16:21;2.87;;;2.67;;
48181;SDS011;33976;47.436;18.876;2022-12-24T00:18:49;6.95;;;6.32;;
48181;SDS011;33976;47.436;18.876;2022-12-24T00:21:17;10.18;;;7.32;;
48181;SDS011;33976;47.436;18.876;2022-12-24T00:23:45;3.05;;;2.87;;
48181;SDS011;33976;47.436;18.876;2022-12-24T00:26:13;4.85;;;3.47;;
48181;SDS011;33976;47.436;18.876;2022-12-24T00:28:41;3.17;;;2.97;;
48181;SDS011;33976;47.436;18.876;2022-12-24T00:31:11;2.30;;;2.17;;
48181;SDS011;33976;47.436;18.876;2022-12-24T00:33:41;4.68;;;4.25;;
48181;SDS011;33976;47.436;18.876;2022-12-24T00:36:09;1.85;;;1.75;;
48181;SDS011;33976;47.436;18.876;2022-12-24T00:38:37;3.92;;;3.72;;
48181;SDS011;33976;47.436;18.876;2022-12-24T00:41:06;2.97;;;2.70;;
48181;SDS011;33976;47.436;18.876;2022-12-24T00:43:52;2.28;;;2.17;;
48181;SDS011;33976;47.436;18.876;2022-12-24T00:46:24;1.42;;;1.40;;
48181;SDS011;33976;47.436;18.876;2022-12-24T00:48:52;5.97;;;4.50;;
48181;SDS011;33976;47.436;18.876;2022-12-24T00:51:21;5.55;;;4.30;;
48181;SDS011;33976;47.436;18.876;2022-12-24T00:53:50;6.53;;;5.90;;
48181;SDS011;33976;47.436;18.876;2022-12-24T00:56:18;6.25;;;5.47;;
48181;SDS011;33976;47.436;18.876;2022-12-24T00:58:46;7.30;;;4.60;;
48181;SDS011;33976;47.436;18.876;2022-12-24T01:01:15;3.00;;;2.37;;
48181;SDS011;33976;47.436;18.876;2022-12-24T01:03:43;5.07;;;4.68;;
48181;SDS011;33976;47.436;18.876;2022-12-24T01:06:13;7.82;;;5.90;;
48181;SDS011;33976;47.436;18.876;2022-12-24T01:08:49;4.15;;;3.55;;
48181;SDS011;33976;47.436;18.876;2022-12-24T01:11:17;2.03;;;1.92;;
48181;SDS011;33976;47.436;18.876;2022-12-24T01:13:46;2.92;;;2.70;;
48181;SDS011;33976;47.436;18.876;2022-12-24T01:16:15;3.42;;;3.20;;
48181;SDS011;33976;47.436;18.876;2022-12-24T01:18:46;1.30;;;1.17;;
48181;SDS011;33976;47.436;18.876;2022-12-24T01:21:14;39.35;;;5.35;;
48181;SDS011;33976;47.436;18.876;2022-12-24T01:23:42;2.42;;;2.33;;
48181;SDS011;33976;47.436;18.876;2022-12-24T01:26:11;1.08;;;1.05;;
48181;SDS011;33976;47.436;18.876;2022-12-24T01:28:39;2.08;;;1.98;;
48181;SDS011;33976;47.436;18.876;2022-12-24T01:31:14;3.67;;;3.40;;
48181;SDS011;33976;47.436;18.876;2022-12-24T01:33:45;2.87;;;2.60;;
48181;SDS011;33976;47.436;18.876;2022-12-24T01:36:13;2.78;;;2.58;;
48181;SDS011;33976;47.436;18.876;2022-12-24T01:38:41;1.17;;;1.15;;
48181;SDS011;33976;47.436;18.876;2022-12-24T01:41:13;2.08;;;1.87;;
48181;SDS011;33976;47.436;18.876;2022-12-24T01:44:17;9.02;;;4.72;;
48181;SDS011;33976;47.436;18.876;2022-12-24T01:46:49;7.07;;;5.53;;
48181;SDS011;33976;47.436;18.876;2022-12-24T01:49:20;1.12;;;1.12;;
48181;SDS011;33976;47.436;18.876;2022-12-24T01:51:53;5.03;;;3.45;;
48181;SDS011;33976;47.436;18.876;2022-12-24T01:54:24;3.53;;;2.62;;
48181;SDS011;33976;47.436;18.876;2022-12-24T01:57:01;1.55;;;1.48;;
48181;SDS011;33976;47.436;18.876;2022-12-24T01:59:33;1.55;;;1.45;;
48181;SDS011;33976;47.436;18.876;2022-12-24T02:02:02;7.75;;;4.00;;
48181;SDS011;33976;47.436;18.876;2022-12-24T02:07:14;0.82;;;0.82;;
48181;SDS011;33976;47.436;18.876;2022-12-24T02:09:43;1.58;;;1.48;;
48181;SDS011;33976;47.436;18.876;2022-12-24T02:12:10;3.17;;;2.90;;
48181;SDS011;33976;47.436;18.876;2022-12-24T02:14:38;2.05;;;1.95;;
48181;SDS011;33976;47.436;18.876;2022-12-24T02:30:29;1.20;;;0.95;;
48181;SDS011;33976;47.436;18.876;2022-12-24T02:36:03;1.62;;;1.55;;
48181;SDS011;33976;47.436;18.876;2022-12-24T02:39:07;1.00;;;1.00;;
48181;SDS011;33976;47.436;18.876;2022-12-24T02:41:39;3.92;;;2.45;;
48181;SDS011;33976;47.436;18.876;2022-12-24T02:44:29;2.78;;;2.35;;
48181;SDS011;33976;47.436;18.876;2022-12-24T02:47:00;2.03;;;1.92;;
48181;SDS011;33976;47.436;18.876;2022-12-24T02:49:29;2.58;;;1.58;;
48181;SDS011;33976;47.436;18.876;2022-12-24T02:51:57;1.65;;;1.55;;
48181;SDS011;33976;47.436;18.876;2022-12-24T02:54:25;0.95;;;0.80;;
48181;SDS011;33976;47.436;18.876;2022-12-24T02:57:57;4.80;;;3.97;;
48181;SDS011;33976;47.436;18.876;2022-12-24T03:00:07;2.55;;;2.35;;
48181;SDS011;33976;47.436;18.876;2022-12-24T03:02:41;0.82;;;0.82;;
48181;SDS011;33976;47.436;18.876;2022-12-24T03:11:09;5.25;;;3.78;;
48181;SDS011;33976;47.436;18.876;2022-12-24T03:13:39;3.35;;;3.08;;
48181;SDS011;33976;47.436;18.876;2022-12-24T03:16:09;3.28;;;2.90;;
48181;SDS011;33976;47.436;18.876;2022-12-24T03:18:41;3.05;;;2.60;;
48181;SDS011;33976;47.436;18.876;2022-12-24T03:21:15;4.75;;;3.95;;
48181;SDS011;33976;47.436;18.876;2022-12-24T03:23:47;8.10;;;3.15;;
48181;SDS011;33976;47.436;18.876;2022-12-24T03:26:16;2.40;;;2.20;;
48181;SDS011;33976;47.436;18.876;2022-12-24T03:28:45;6.70;;;5.43;;
48181;SDS011;33976;47.436;18.876;2022-12-24T03:31:14;0.82;;;0.82;;
48181;SDS011;33976;47.436;18.876;2022-12-24T03:33:43;3.50;;;2.45;;
48181;SDS011;33976;47.436;18.876;2022-12-24T03:36:12;1.75;;;1.65;;
48181;SDS011;33976;47.436;18.876;2022-12-24T03:38:40;2.25;;;2.10;;
48181;SDS011;33976;47.436;18.876;2022-12-24T03:41:08;1.92;;;1.83;;
48181;SDS011;33976;47.436;18.876;2022-12-24T03:43:36;6.87;;;5.00;;
48181;SDS011;33976;47.436;18.876;2022-12-24T03:46:05;1.52;;;1.42;;
48181;SDS011;33976;47.436;18.876;2022-12-24T03:48:34;7.57;;;3.55;;
48181;SDS011;33976;47.436;18.876;2022-12-24T03:51:02;4.97;;;3.80;;
48181;SDS011;33976;47.436;18.876;2022-12-24T03:53:30;3.28;;;2.72;;
48181;SDS011;33976;47.436;18.876;2022-12-24T03:55:58;1.73;;;1.62;;
48181;SDS011;33976;47.436;18.876;2022-12-24T03:58:26;4.72;;;4.32;;
48181;SDS011;33976;47.436;18.876;2022-12-24T04:00:54;2.62;;;2.42;;
48181;SDS011;33976;47.436;18.876;2022-12-24T04:03:23;10.52;;;3.95;;
48181;SDS011;33976;47.436;18.876;2022-12-24T04:06:07;2.53;;;2.33;;
48181;SDS011;33976;47.436;18.876;2022-12-24T04:08:37;1.73;;;1.62;;
48181;SDS011;33976;47.436;18.876;2022-12-24T04:11:06;3.92;;;3.55;;
48181;SDS011;33976;47.436;18.876;2022-12-24T04:13:36;2.75;;;2.53;;
48181;SDS011;33976;47.436;18.876;2022-12-24T04:16:05;2.33;;;2.12;;
48181;SDS011;33976;47.436;18.876;2022-12-24T04:18:35;1.73;;;1.62;;
48181;SDS011;33976;47.436;18.876;2022-12-24T04:21:04;3.67;;;3.33;;
48181;SDS011;33976;47.436;18.876;2022-12-24T04:23:34;1.15;;;1.02;;
48181;SDS011;33976;47.436;18.876;2022-12-24T04:26:03;3.22;;;3.03;;
48181;SDS011;33976;47.436;18.876;2022-12-24T04:28:33;1.75;;;1.65;;
48181;SDS011;33976;47.436;18.876;2022-12-24T04:31:02;2.03;;;1.90;;
48181;SDS011;33976;47.436;18.876;2022-12-24T04:33:33;2.03;;;1.92;;
48181;SDS011;33976;47.436;18.876;2022-12-24T04:36:02;1.45;;;1.35;;
48181;SDS011;33976;47.436;18.876;2022-12-24T04:38:31;0.85;;;0.85;;
48181;SDS011;33976;47.436;18.876;2022-12-24T04:41:00;2.72;;;2.53;;
48181;SDS011;33976;47.436;18.876;2022-12-24T04:43:32;4.95;;;1.85;;
48181;SDS011;33976;47.436;18.876;2022-12-24T04:46:05;0.85;;;0.85;;
48181;SDS011;33976;47.436;18.876;2022-12-24T04:48:34;1.10;;;1.05;;
48181;SDS011;33976;47.436;18.876;2022-12-24T04:51:03;2.03;;;1.90;;
48181;SDS011;33976;47.436;18.876;2022-12-24T04:53:32;3.95;;;3.20;;
48181;SDS011;33976;47.436;18.876;2022-12-24T04:56:00;2.65;;;2.45;;
48181;SDS011;33976;47.436;18.876;2022-12-24T04:58:29;2.12;;;1.95;;
48181;SDS011;33976;47.436;18.876;2022-12-24T05:01:01;2.47;;;2.28;;
48181;SDS011;33976;47.436;18.876;2022-12-24T05:03:31;2.65;;;2.45;;
48181;SDS011;33976;47.436;18.876;2022-12-24T05:06:02;1.58;;;1.50;;
48181;SDS011;33976;47.436;18.876;2022-12-24T05:08:35;1.73;;;1.60;;
48181;SDS011;33976;47.436;18.876;2022-12-24T05:11:03;1.15;;;1.12;;
48181;SDS011;33976;47.436;18.876;2022-12-24T05:13:31;5.80;;;4.60;;
48181;SDS011;33976;47.436;18.876;2022-12-24T05:16:10;7.05;;;3.75;;
48181;SDS011;33976;47.436;18.876;2022-12-24T05:18:39;4.68;;;4.10;;
48181;SDS011;33976;47.436;18.876;2022-12-24T05:21:10;1.87;;;1.67;;
48181;SDS011;33976;47.436;18.876;2022-12-24T05:23:42;2.17;;;2.08;;
48181;SDS011;33976;47.436;18.876;2022-12-24T05:26:30;1.60;;;1.50;;
48181;SDS011;33976;47.436;18.876;2022-12-24T05:29:00;1.40;;;1.30;;
48181;SDS011;33976;47.436;18.876;2022-12-24T05:31:29;2.40;;;2.03;;
48181;SDS011;33976;47.436;18.876;2022-12-24T05:33:59;5.00;;;4.53;;
48181;SDS011;33976;47.436;18.876;2022-12-24T05:36:28;4.22;;;3.87;;
48181;SDS011;33976;47.436;18.876;2022-12-24T05:38:56;4.85;;;4.37;;
48181;SDS011;33976;47.436;18.876;2022-12-24T05:41:24;7.00;;;1.52;;
48181;SDS011;33976;47.436;18.876;2022-12-24T05:43:52;3.22;;;3.03;;
48181;SDS011;33976;47.436;18.876;2022-12-24T05:46:21;1.10;;;1.10;;
48181;SDS011;33976;47.436;18.876;2022-12-24T05:48:50;0.73;;;0.73;;
48181;SDS011;33976;47.436;18.876;2022-12-24T05:51:20;1.35;;;1.27;;
48181;SDS011;33976;47.436;18.876;2022-12-24T05:53:49;4.35;;;2.78;;
48181;SDS011;33976;47.436;18.876;2022-12-24T05:56:19;2.92;;;2.15;;
48181;SDS011;33976;47.436;18.876;2022-12-24T05:58:49;0.88;;;0.88;;
48181;SDS011;33976;47.436;18.876;2022-12-24T06:01:19;1.17;;;1.17;;
48181;SDS011;33976;47.436;18.876;2022-12-24T06:03:48;0.70;;;0.70;;
48181;SDS011;33976;47.436;18.876;2022-12-24T06:06:18;0.55;;;0.55;;
48181;SDS011;33976;47.436;18.876;2022-12-24T06:08:48;0.85;;;0.85;;
48181;SDS011;33976;47.436;18.876;2022-12-24T06:11:18;0.50;;;0.50;;
48181;SDS011;33976;47.436;18.876;2022-12-24T06:13:48;1.45;;;1.35;;
48181;SDS011;33976;47.436;18.876;2022-12-24T06:16:16;0.73;;;0.73;;
48181;SDS011;33976;47.436;18.876;2022-12-24T06:18:45;0.50;;;0.50;;
48181;SDS011;33976;47.436;18.876;2022-12-24T06:21:14;2.37;;;2.25;;
48181;SDS011;33976;47.436;18.876;2022-12-24T06:23:43;0.88;;;0.88;;
48181;SDS011;33976;47.436;18.876;2022-12-24T06:26:13;1.95;;;1.85;;
48181;SDS011;33976;47.436;18.876;2022-12-24T06:28:42;1.62;;;1.52;;
48181;SDS011;33976;47.436;18.876;2022-12-24T06:31:12;2.60;;;2.45;;
48181;SDS011;33976;47.436;18.876;2022-12-24T06:33:42;2.22;;;1.83;;
48181;SDS011;33976;47.436;18.876;2022-12-24T06:36:14;0.95;;;0.95;;
48181;SDS011;33976;47.436;18.876;2022-12-24T06:38:45;2.80;;;2.62;;
48181;SDS011;33976;47.436;18.876;2022-12-24T06:41:14;1.70;;;1.60;;
48181;SDS011;33976;47.436;18.876;2022-12-24T06:43:47;2.50;;;2.37;;
48181;SDS011;33976;47.436;18.876;2022-12-24T06:46:16;0.95;;;0.95;;
48181;SDS011;33976;47.436;18.876;2022-12-24T06:48:45;1.98;;;1.87;;
48181;SDS011;33976;47.436;18.876;2022-12-24T06:51:14;3.08;;;2.87;;
48181;SDS011;33976;47.436;18.876;2022-12-24T06:53:44;3.53;;;3.33;;
48181;SDS011;33976;47.436;18.876;2022-12-24T06:56:12;5.43;;;3.65;;
48181;SDS011;33976;47.436;18.876;2022-12-24T06:58:41;1.87;;;1.77;;
48181;SDS011;33976;47.436;18.876;2022-12-24T07:01:11;1.62;;;1.52;;
48181;SDS011;33976;47.436;18.876;2022-12-24T07:03:40;3.17;;;2.85;;
48181;SDS011;33976;47.436;18.876;2022-12-24T07:06:19;1.48;;;1.37;;
48181;SDS011;33976;47.436;18.876;2022-12-24T07:08:51;2.72;;;2.53;;
48181;SDS011;33976;47.436;18.876;2022-12-24T07:11:20;2.60;;;1.35;;
48181;SDS011;33976;47.436;18.876;2022-12-24T07:13:48;0.73;;;0.73;;
48181;SDS011;33976;47.436;18.876;2022-12-24T07:16:16;1.62;;;1.23;;
48181;SDS011;33976;47.436;18.876;2022-12-24T07:18:44;2.15;;;1.73;;
48181;SDS011;33976;47.436;18.876;2022-12-24T07:21:12;13.62;;;9.90;;
48181;SDS011;33976;47.436;18.876;2022-12-24T07:23:41;12.98;;;8.98;;
48181;SDS011;33976;47.436;18.876;2022-12-24T07:26:09;9.05;;;5.45;;
48181;SDS011;33976;47.436;18.876;2022-12-24T07:28:37;1.17;;;1.08;;
48181;SDS011;33976;47.436;18.876;2022-12-24T07:31:06;1.77;;;1.67;;
48181;SDS011;33976;47.436;18.876;2022-12-24T07:33:34;0.55;;;0.55;;
48181;SDS011;33976;47.436;18.876;2022-12-24T07:36:03;0.82;;;0.70;;
48181;SDS011;33976;47.436;18.876;2022-12-24T07:38:33;0.50;;;0.50;;
48181;SDS011;33976;47.436;18.876;2022-12-24T07:41:01;1.12;;;1.00;;
48181;SDS011;33976;47.436;18.876;2022-12-24T07:43:31;0.65;;;0.65;;
48181;SDS011;33976;47.436;18.876;2022-12-24T07:46:00;0.93;;;0.85;;
48181;SDS011;33976;47.436;18.876;2022-12-24T07:48:28;0.93;;;0.85;;
48181;SDS011;33976;47.436;18.876;2022-12-24T07:50:57;5.18;;;2.87;;
48181;SDS011;33976;47.436;18.876;2022-12-24T07:53:26;7.72;;;6.68;;
48181;SDS011;33976;47.436;18.876;2022-12-24T07:55:55;3.20;;;2.42;;
48181;SDS011;33976;47.436;18.876;2022-12-24T07:58:23;2.62;;;2.42;;
48181;SDS011;33976;47.436;18.876;2022-12-24T08:00:55;2.42;;;2.22;;
48181;SDS011;33976;47.436;18.876;2022-12-24T08:03:25;4.10;;;3.70;;
48181;SDS011;33976;47.436;18.876;2022-12-24T08:05:53;1.25;;;1.25;;
48181;SDS011;33976;47.436;18.876;2022-12-24T08:08:21;0.60;;;0.60;;
48181;SDS011;33976;47.436;18.876;2022-12-24T08:10:50;0.70;;;0.70;;
48181;SDS011;33976;47.436;18.876;2022-12-24T08:13:18;0.35;;;0.35;;
48181;SDS011;33976;47.436;18.876;2022-12-24T08:15:46;0.90;;;0.90;;
48181;SDS011;33976;47.436;18.876;2022-12-24T08:18:15;0.70;;;0.70;;
48181;SDS011;33976;47.436;18.876;2022-12-24T08:20:42;0.50;;;0.50;;
48181;SDS011;33976;47.436;18.876;2022-12-24T08:23:10;0.50;;;0.50;;
48181;SDS011;33976;47.436;18.876;2022-12-24T08:25:43;0.52;;;0.52;;
48181;SDS011;33976;47.436;18.876;2022-12-24T08:28:13;0.77;;;0.77;;
48181;SDS011;33976;47.436;18.876;2022-12-24T08:30:42;0.40;;;0.40;;
48181;SDS011;33976;47.436;18.876;2022-12-24T08:33:10;0.40;;;0.40;;
48181;SDS011;33976;47.436;18.876;2022-12-24T08:35:38;0.50;;;0.50;;
48181;SDS011;33976;47.436;18.876;2022-12-24T08:38:07;0.80;;;0.70;;
48181;SDS011;33976;47.436;18.876;2022-12-24T08:40:35;0.30;;;0.30;;
48181;SDS011;33976;47.436;18.876;2022-12-24T08:43:03;1.75;;;1.65;;
48181;SDS011;33976;47.436;18.876;2022-12-24T08:45:31;0.98;;;0.93;;
48181;SDS011;33976;47.436;18.876;2022-12-24T08:48:07;12.27;;;7.30;;
48181;SDS011;33976;47.436;18.876;2022-12-24T08:50:39;9.05;;;6.35;;
48181;SDS011;33976;47.436;18.876;2022-12-24T08:53:08;9.48;;;5.82;;
48181;SDS011;33976;47.436;18.876;2022-12-24T08:55:37;3.45;;;3.12;;
48181;SDS011;33976;47.436;18.876;2022-12-24T08:58:05;3.22;;;2.50;;
48181;SDS011;33976;47.436;18.876;2022-12-24T09:00:34;3.70;;;1.67;;
48181;SDS011;33976;47.436;18.876;2022-12-24T09:03:02;2.25;;;2.12;;
48181;SDS011;33976;47.436;18.876;2022-12-24T09:05:30;3.17;;;2.33;;
48181;SDS011;33976;47.436;18.876;2022-12-24T09:07:58;4.97;;;3.70;;
48181;SDS011;33976;47.436;18.876;2022-12-24T09:10:27;0.50;;;0.50;;
48181;SDS011;33976;47.436;18.876;2022-12-24T09:12:55;1.55;;;1.45;;
48181;SDS011;33976;47.436;18.876;2022-12-24T09:15:23;1.65;;;1.55;;
48181;SDS011;33976;47.436;18.876;2022-12-24T09:17:51;1.05;;;1.05;;
48181;SDS011;33976;47.436;18.876;2022-12-24T09:20:19;1.37;;;1.27;;
48181;SDS011;33976;47.436;18.876;2022-12-24T09:22:47;1.40;;;1.05;;
48181;SDS011;33976;47.436;18.876;2022-12-24T09:25:16;4.73;;;3.13;;
48181;SDS011;33976;47.436;18.876;2022-12-24T09:27:44;0.90;;;0.88;;
48181;SDS011;33976;47.436;18.876;2022-12-24T09:30:12;0.60;;;0.60;;
48181;SDS011;33976;47.436;18.876;2022-12-24T09:32:41;0.50;;;0.50;;
48181;SDS011;33976;47.436;18.876;2022-12-24T09:35:09;1.77;;;1.67;;
48181;SDS011;33976;47.436;18.876;2022-12-24T09:37:37;0.70;;;0.70;;
48181;SDS011;33976;47.436;18.876;2022-12-24T09:40:06;0.85;;;0.85;;
48181;SDS011;33976;47.436;18.876;2022-12-24T09:42:47;0.30;;;0.30;;
48181;SDS011;33976;47.436;18.876;2022-12-24T09:45:25;4.43;;;4.03;;
48181;SDS011;33976;47.436;18.876;2022-12-24T09:47:58;6.62;;;5.95;;
48181;SDS011;33976;47.436;18.876;2022-12-24T09:50:48;5.05;;;4.60;;
48181;SDS011;33976;47.436;18.876;2022-12-24T09:53:28;0.93;;;0.93;;
48181;SDS011;33976;47.436;18.876;2022-12-24T09:56:14;0.52;;;0.52;;
48181;SDS011;33976;47.436;18.876;2022-12-24T09:58:48;0.93;;;0.93;;
48181;SDS011;33976;47.436;18.876;2022-12-24T10:01:20;0.50;;;0.50;;
48181;SDS011;33976;47.436;18.876;2022-12-24T10:03:48;0.77;;;0.77;;
48181;SDS011;33976;47.436;18.876;2022-12-24T10:06:19;0.82;;;0.82;;
48181;SDS011;33976;47.436;18.876;2022-12-24T10:09:11;1.70;;;1.60;;
48181;SDS011;33976;47.436;18.876;2022-12-24T10:11:42;5.85;;;5.35;;
48181;SDS011;33976;47.436;18.876;2022-12-24T10:17:17;4.90;;;4.50;;
48181;SDS011;33976;47.436;18.876;2022-12-24T10:22:52;6.37;;;5.83;;
48181;SDS011;33976;47.436;18.876;2022-12-24T10:25:29;13.13;;;11.82;;
48181;SDS011;33976;47.436;18.876;2022-12-24T10:28:07;6.90;;;6.47;;
48181;SDS011;33976;47.436;18.876;2022-12-24T10:30:42;10.60;;;9.40;;
48181;SDS011;33976;47.436;18.876;2022-12-24T10:33:19;11.88;;;8.75;;
48181;SDS011;33976;47.436;18.876;2022-12-24T10:35:54;3.60;;;3.28;;
48181;SDS011;33976;47.436;18.876;2022-12-24T10:38:23;18.50;;;12.15;;
48181;SDS011;33976;47.436;18.876;2022-12-24T10:40:53;9.85;;;8.98;;
48181;SDS011;33976;47.436;18.876;2022-12-24T10:43:23;31.67;;;13.23;;
48181;SDS011;33976;47.436;18.876;2022-12-24T10:46:04;15.35;;;10.23;;
48181;SDS011;33976;47.436;18.876;2022-12-24T10:48:51;10.95;;;9.77;;
48181;SDS011;33976;47.436;18.876;2022-12-24T10:54:31;2.42;;;2.22;;
48181;SDS011;33976;47.436;18.876;2022-12-24T10:57:06;2.90;;;2.70;;
48181;SDS011;33976;47.436;18.876;2022-12-24T10:59:54;2.35;;;2.15;;
48181;SDS011;33976;47.436;18.876;2022-12-24T11:05:05;0.30;;;0.30;;
48181;SDS011;33976;47.436;18.876;2022-12-24T11:07:41;0.47;;;0.47;;
48181;SDS011;33976;47.436;18.876;2022-12-24T11:10:12;0.50;;;0.50;;
48181;SDS011;33976;47.436;18.876;2022-12-24T11:12:50;0.50;;;0.50;;
48181;SDS011;33976;47.436;18.876;2022-12-24T11:15:38;1.27;;;1.27;;
48181;SDS011;33976;47.436;18.876;2022-12-24T11:18:12;3.45;;;3.17;;
48181;SDS011;33976;47.436;18.876;2022-12-24T11:20:41;3.50;;;2.55;;
48181;SDS011;33976;47.436;18.876;2022-12-24T11:23:16;3.05;;;2.65;;
48181;SDS011;33976;47.436;18.876;2022-12-24T11:25:49;26.25;;;14.18;;
48181;SDS011;33976;47.436;18.876;2022-12-24T11:28:38;29.50;;;19.80;;
48181;SDS011;33976;47.436;18.876;2022-12-24T11:31:19;24.35;;;19.77;;
48181;SDS011;33976;47.436;18.876;2022-12-24T11:33:48;7.68;;;7.03;;
48181;SDS011;33976;47.436;18.876;2022-12-24T11:36:20;10.70;;;7.40;;
48181;SDS011;33976;47.436;18.876;2022-12-24T11:38:53;2.87;;;2.67;;
48181;SDS011;33976;47.436;18.876;2022-12-24T11:41:24;1.92;;;1.83;;
48181;SDS011;33976;47.436;18.876;2022-12-24T11:44:00;4.10;;;3.05;;
48181;SDS011;33976;47.436;18.876;2022-12-24T11:46:38;1.35;;;1.25;;
48181;SDS011;33976;47.436;18.876;2022-12-24T11:49:12;1.17;;;1.15;;
48181;SDS011;33976;47.436;18.876;2022-12-24T12:00:25;0.40;;;0.40;;
48181;SDS011;33976;47.436;18.876;2022-12-24T12:02:54;0.55;;;0.55;;
48181;SDS011;33976;47.436;18.876;2022-12-24T12:05:26;0.40;;;0.40;;
48181;SDS011;33976;47.436;18.876;2022-12-24T12:08:08;0.75;;;0.62;;
48181;SDS011;33976;47.436;18.876;2022-12-24T12:10:42;1.95;;;1.85;;
48181;SDS011;33976;47.436;18.876;2022-12-24T12:13:12;1.58;;;1.48;;
48181;SDS011;33976;47.436;18.876;2022-12-24T12:16:05;1.05;;;1.05;;
48181;SDS011;33976;47.436;18.876;2022-12-24T12:18:59;0.75;;;0.70;;
48181;SDS011;33976;47.436;18.876;2022-12-24T12:21:39;5.30;;;4.90;;
48181;SDS011;33976;47.436;18.876;2022-12-24T12:24:18;1.33;;;1.23;;
48181;SDS011;33976;47.436;18.876;2022-12-24T12:27:32;1.77;;;1.62;;
48181;SDS011;33976;47.436;18.876;2022-12-24T12:29:57;3.10;;;2.85;;
48181;SDS011;33976;47.436;18.876;2022-12-24T12:32:36;0.75;;;0.75;;
48181;SDS011;33976;47.436;18.876;2022-12-24T12:35:15;1.10;;;1.10;;
48181;SDS011;33976;47.436;18.876;2022-12-24T12:37:51;1.75;;;1.65;;
48181;SDS011;33976;47.436;18.876;2022-12-24T12:40:27;0.93;;;0.93;;
48181;SDS011;33976;47.436;18.876;2022-12-24T12:47:07;2.87;;;1.37;;
48181;SDS011;33976;47.436;18.876;2022-12-24T12:49:14;0.40;;;0.40;;
48181;SDS011;33976;47.436;18.876;2022-12-24T12:57:32;0.50;;;0.50;;
48181;SDS011;33976;47.436;18.876;2022-12-24T13:00:04;0.40;;;0.40;;
48181;SDS011;33976;47.436;18.876;2022-12-24T13:21:43;0.50;;;0.50;;
48181;SDS011;33976;47.436;18.876;2022-12-24T13:24:20;1.70;;;1.60;;
48181;SDS011;33976;47.436;18.876;2022-12-24T13:27:26;0.47;;;0.47;;
48181;SDS011;33976;47.436;18.876;2022-12-24T13:29:52;0.35;;;0.35;;
48181;SDS011;33976;47.436;18.876;2022-12-24T13:37:46;0.30;;;0.30;;
48181;SDS011;33976;47.436;18.876;2022-12-24T13:42:50;0.70;;;0.70;;
48181;SDS011;33976;47.436;18.876;2022-12-24T13:50:37;0.50;;;0.50;;
48181;SDS011;33976;47.436;18.876;2022-12-24T13:56:24;3.00;;;1.70;;
48181;SDS011;33976;47.436;18.876;2022-12-24T13:59:10;1.02;;;0.98;;
48181;SDS011;33976;47.436;18.876;2022-12-24T14:01:40;0.32;;;0.32;;
48181;SDS011;33976;47.436;18.876;2022-12-24T14:04:17;0.43;;;0.43;;
48181;SDS011;33976;47.436;18.876;2022-12-24T14:06:49;0.40;;;0.40;;
48181;SDS011;33976;47.436;18.876;2022-12-24T14:09:20;0.32;;;0.32;;
48181;SDS011;33976;47.436;18.876;2022-12-24T14:14:33;0.30;;;0.30;;
48181;SDS011;33976;47.436;18.876;2022-12-24T14:19:48;0.40;;;0.40;;
48181;SDS011;33976;47.436;18.876;2022-12-24T14:30:16;0.40;;;0.40;;
48181;SDS011;33976;47.436;18.876;2022-12-24T14:32:47;0.77;;;0.77;;
48181;SDS011;33976;47.436;18.876;2022-12-24T14:35:21;0.60;;;0.60;;
48181;SDS011;33976;47.436;18.876;2022-12-24T14:38:14;1.12;;;1.12;;
48181;SDS011;33976;47.436;18.876;2022-12-24T14:40:53;1.10;;;1.10;;
48181;SDS011;33976;47.436;18.876;2022-12-24T14:46:06;1.10;;;1.05;;
48181;SDS011;33976;47.436;18.876;2022-12-24T14:51:29;1.12;;;1.05;;
48181;SDS011;33976;47.436;18.876;2022-12-24T14:56:44;2.80;;;1.35;;
48181;SDS011;33976;47.436;18.876;2022-12-24T14:59:19;0.50;;;0.50;;
48181;SDS011;33976;47.436;18.876;2022-12-24T15:01:47;0.50;;;0.50;;
48181;SDS011;33976;47.436;18.876;2022-12-24T15:04:16;0.30;;;0.30;;
48181;SDS011;33976;47.436;18.876;2022-12-24T15:09:27;0.40;;;0.40;;
48181;SDS011;33976;47.436;18.876;2022-12-24T15:11:57;1.27;;;0.90;;
48181;SDS011;33976;47.436;18.876;2022-12-24T15:14:27;0.30;;;0.30;;
48181;SDS011;33976;47.436;18.876;2022-12-24T15:17:03;1.20;;;1.05;;
48181;SDS011;33976;47.436;18.876;2022-12-24T15:19:36;7.12;;;2.15;;
48181;SDS011;33976;47.436;18.876;2022-12-24T15:22:17;0.50;;;0.50;;
48181;SDS011;33976;47.436;18.876;2022-12-24T15:24:50;0.68;;;0.68;;
48181;SDS011;33976;47.436;18.876;2022-12-24T15:27:20;0.47;;;0.47;;
48181;SDS011;33976;47.436;18.876;2022-12-24T15:29:52;0.50;;;0.50;;
48181;SDS011;33976;47.436;18.876;2022-12-24T15:32:23;0.30;;;0.30;;
48181;SDS011;33976;47.436;18.876;2022-12-24T15:34:52;0.55;;;0.55;;
48181;SDS011;33976;47.436;18.876;2022-12-24T15:37:22;0.47;;;0.47;;
48181;SDS011;33976;47.436;18.876;2022-12-24T15:39:53;0.40;;;0.40;;
48181;SDS011;33976;47.436;18.876;2022-12-24T15:42:24;0.62;;;0.62;;
48181;SDS011;33976;47.436;18.876;2022-12-24T15:47:25;0.43;;;0.43;;
48181;SDS011;33976;47.436;18.876;2022-12-24T15:49:55;0.30;;;0.30;;
48181;SDS011;33976;47.436;18.876;2022-12-24T15:52:23;0.30;;;0.30;;
48181;SDS011;33976;47.436;18.876;2022-12-24T15:54:52;0.35;;;0.35;;
48181;SDS011;33976;47.436;18.876;2022-12-24T15:57:27;0.40;;;0.40;;
48181;SDS011;33976;47.436;18.876;2022-12-24T15:59:57;0.45;;;0.45;;
48181;SDS011;33976;47.436;18.876;2022-12-24T16:02:31;0.47;;;0.47;;
48181;SDS011;33976;47.436;18.876;2022-12-24T16:08:05;0.70;;;0.70;;
48181;SDS011;33976;47.436;18.876;2022-12-24T16:10:40;0.37;;;0.37;;
48181;SDS011;33976;47.436;18.876;2022-12-24T16:13:15;1.35;;;0.82;;
48181;SDS011;33976;47.436;18.876;2022-12-24T16:18:18;0.95;;;0.95;;
48181;SDS011;33976;47.436;18.876;2022-12-24T16:20:50;1.87;;;1.75;;
48181;SDS011;33976;47.436;18.876;2022-12-24T16:23:20;0.50;;;0.50;;
48181;SDS011;33976;47.436;18.876;2022-12-24T16:25:50;0.60;;;0.60;;
48181;SDS011;33976;47.436;18.876;2022-12-24T16:28:22;0.40;;;0.40;;
48181;SDS011;33976;47.436;18.876;2022-12-24T16:30:50;0.45;;;0.45;;
48181;SDS011;33976;47.436;18.876;2022-12-24T16:33:22;0.45;;;0.45;;
48181;SDS011;33976;47.436;18.876;2022-12-24T16:35:50;0.40;;;0.40;;
48181;SDS011;33976;47.436;18.876;2022-12-24T16:38:19;0.60;;;0.60;;
48181;SDS011;33976;47.436;18.876;2022-12-24T16:40:47;0.60;;;0.60;;
48181;SDS011;33976;47.436;18.876;2022-12-24T16:43:15;0.35;;;0.35;;
48181;SDS011;33976;47.436;18.876;2022-12-24T16:46:03;0.40;;;0.40;;
48181;SDS011;33976;47.436;18.876;2022-12-24T16:48:32;0.68;;;0.68;;
48181;SDS011;33976;47.436;18.876;2022-12-24T16:51:03;0.60;;;0.60;;
48181;SDS011;33976;47.436;18.876;2022-12-24T16:53:31;0.50;;;0.50;;
48181;SDS011;33976;47.436;18.876;2022-12-24T16:55:59;3.40;;;3.12;;
48181;SDS011;33976;47.436;18.876;2022-12-24T16:58:29;0.52;;;0.52;;
48181;SDS011;33976;47.436;18.876;2022-12-24T17:00:57;1.08;;;0.93;;
48181;SDS011;33976;47.436;18.876;2022-12-24T17:03:26;1.00;;;1.00;;